Time;durP1;ratioP1;P1;durP2;ratioP2;P2;SDS_P1;SDS_P2;PMS_P1;PMS_P2;Temp;Humidity;BMP_temperature;BMP_pressure;BME280_temperature;BME280_humidity;BME280_pressure;Samples;Min_cycle;Max_cycle;Signal;HPM_P1;HPM_P2
2023/03/12 00:00:50;;;;;;;1.27;1.17;;;8.00;68.60;;;;;;5040572;28;20033;-77
2023/03/12 00:03:16;;;;;;;1.10;1.00;;;8.00;68.70;;;;;;5041009;28;20102;-77
2023/03/12 00:05:42;;;;;;;1.30;1.20;;;8.00;68.70;;;;;;5042505;28;20029;-77
2023/03/12 00:08:09;;;;;;;0.68;0.68;;;8.00;68.50;;;;;;5041414;28;20041;-78
2023/03/12 00:10:38;;;;;;;0.98;0.80;;;8.00;68.70;;;;;;5038022;28;20041;-78
2023/03/12 00:13:04;;;;;;;0.77;0.77;;;8.00;68.50;;;;;;5043753;28;20037;-78
2023/03/12 00:15:30;;;;;;;0.60;0.60;;;8.00;68.50;;;;;;5037188;28;20119;-77
2023/03/12 00:17:56;;;;;;;0.95;0.93;;;8.00;68.40;;;;;;5037742;28;20056;-77
2023/03/12 00:20:22;;;;;;;0.77;0.60;;;8.00;68.60;;;;;;5037552;28;20029;-77
2023/03/12 00:22:49;;;;;;;0.77;0.70;;;8.00;68.50;;;;;;5036635;28;20099;-77
2023/03/12 00:25:16;;;;;;;0.80;0.80;;;8.00;68.50;;;;;;5042600;28;20041;-78
2023/03/12 00:27:42;;;;;;;1.98;0.70;;;8.10;68.80;;;;;;5042365;28;20068;-78
2023/03/12 00:30:09;;;;;;;1.05;0.80;;;8.10;69.00;;;;;;5037977;28;20044;-78
2023/03/12 00:32:36;;;;;;;0.93;0.70;;;8.10;68.80;;;;;;5038032;28;20048;-77
2023/03/12 00:35:04;;;;;;;0.60;0.60;;;8.10;69.00;;;;;;5036663;28;20033;-77
2023/03/12 00:37:32;;;;;;;1.30;0.80;;;8.10;68.90;;;;;;5025167;28;20041;-76
2023/03/12 00:40:00;;;;;;;0.65;0.60;;;8.10;68.90;;;;;;5036832;28;20408;-76
2023/03/12 00:42:26;;;;;;;0.50;0.40;;;8.10;68.90;;;;;;5022796;28;20044;-77
2023/03/12 00:44:52;;;;;;;1.05;0.80;;;8.10;68.80;;;;;;5044546;28;20119;-76
2023/03/12 00:47:19;;;;;;;0.60;0.60;;;8.20;68.80;;;;;;5026535;28;20037;-78
2023/03/12 00:49:45;;;;;;;0.55;0.55;;;8.10;68.90;;;;;;5045049;28;20124;-76
2023/03/12 00:52:11;;;;;;;2.10;0.75;;;8.10;69.00;;;;;;5035065;28;20035;-76
2023/03/12 00:54:37;;;;;;;2.15;0.60;;;8.10;69.20;;;;;;5041353;28;20043;-76
2023/03/12 00:57:04;;;;;;;0.40;0.40;;;8.20;69.00;;;;;;5056674;28;20124;-75
2023/03/12 00:59:32;;;;;;;0.77;0.60;;;8.20;68.90;;;;;;5044537;28;20075;-75
2023/03/12 01:01:58;;;;;;;1.15;0.75;;;8.20;69.00;;;;;;5045050;28;20052;-76
2023/03/12 01:04:24;;;;;;;0.88;0.60;;;8.20;69.00;;;;;;5040245;28;20099;-76
2023/03/12 01:06:50;;;;;;;1.10;0.60;;;8.20;69.00;;;;;;5055602;28;20370;-76
2023/03/12 01:09:16;;;;;;;0.88;0.80;;;8.20;69.20;;;;;;5044459;28;20037;-76
2023/03/12 01:11:42;;;;;;;1.13;0.60;;;8.20;69.20;;;;;;5042974;28;20040;-76
2023/03/12 01:14:09;;;;;;;0.73;0.70;;;8.30;69.20;;;;;;5041104;28;20423;-76
2023/03/12 01:16:35;;;;;;;1.00;0.93;;;8.30;69.20;;;;;;5043641;28;20052;-77
2023/03/12 01:19:01;;;;;;;0.70;0.70;;;8.30;69.20;;;;;;5041985;28;20404;-77
2023/03/12 01:21:29;;;;;;;0.70;0.70;;;8.30;69.40;;;;;;5054990;28;20071;-77
2023/03/12 01:23:56;;;;;;;0.88;0.80;;;8.30;69.30;;;;;;5042050;28;20491;-77
2023/03/12 01:26:22;;;;;;;0.77;0.77;;;8.30;69.90;;;;;;5044781;28;20048;-77
2023/03/12 01:28:49;;;;;;;0.77;0.70;;;8.30;69.40;;;;;;5055772;28;20116;-77
2023/03/12 01:31:17;;;;;;;0.93;0.93;;;8.30;69.40;;;;;;5042150;28;20545;-77
2023/03/12 01:33:44;;;;;;;1.25;1.13;;;8.30;69.40;;;;;;5043106;28;20094;-78
2023/03/12 01:36:36;;;;;;;1.13;0.90;;;8.30;69.70;;;;;;5054964;28;20060;-77
2023/03/12 01:39:03;;;;;;;2.22;1.00;;;8.30;69.70;;;;;;5053494;28;20045;-77
2023/03/12 01:41:31;;;;;;;1.17;1.00;;;8.40;69.90;;;;;;5043898;28;20048;-77
2023/03/12 01:43:58;;;;;;;0.82;0.82;;;8.40;69.60;;;;;;5043073;28;20037;-77
2023/03/12 01:46:29;;;;;;;1.10;1.10;;;8.40;69.40;;;;;;5029607;28;20086;-77
2023/03/12 01:49:16;;;;;;;1.45;1.20;;;8.40;69.80;;;;;;5045151;28;20052;-77
2023/03/12 01:52:00;;;;;;;1.60;0.95;;;8.40;69.80;;;;;;5039896;28;20036;-76
2023/03/12 01:54:41;;;;;;;1.10;1.00;;;8.40;70.00;;;;;;5043606;28;20671;-77
2023/03/12 01:57:13;;;;;;;1.98;1.65;;;8.40;69.80;;;;;;5028358;28;20033;-77
2023/03/12 01:59:55;;;;;;;1.38;1.25;;;8.40;70.00;;;;;;5043961;28;20033;-77
2023/03/12 02:02:25;;;;;;;1.38;1.20;;;8.50;69.90;;;;;;5042082;28;20043;-76
2023/03/12 02:05:06;;;;;;;1.20;1.10;;;8.50;69.80;;;;;;5030440;28;20041;-78
2023/03/12 02:07:33;;;;;;;1.30;1.17;;;8.50;69.80;;;;;;5044148;28;20043;-77
2023/03/12 02:09:59;;;;;;;1.80;1.42;;;8.50;69.80;;;;;;5043870;28;20510;-78
2023/03/12 02:12:26;;;;;;;1.13;1.00;;;8.50;70.20;;;;;;5045685;28;20055;-78
2023/03/12 02:14:52;;;;;;;1.48;1.38;;;8.50;70.30;;;;;;5042991;28;20025;-78
2023/03/12 02:17:18;;;;;;;1.67;1.38;;;8.50;70.30;;;;;;5046602;28;20414;-77
2023/03/12 02:20:11;;;;;;;1.55;1.35;;;8.50;70.50;;;;;;5048185;28;20085;-77
2023/03/12 02:22:39;;;;;;;1.35;1.25;;;8.50;70.40;;;;;;5033496;28;20029;-77
2023/03/12 02:25:25;;;;;;;2.17;1.40;;;8.60;70.50;;;;;;5044703;28;20047;-77
2023/03/12 02:27:52;;;;;;;1.30;1.20;;;8.60;70.50;;;;;;5031338;28;20037;-77
2023/03/12 02:30:19;;;;;;;1.17;1.10;;;8.60;70.30;;;;;;5030644;28;20086;-77
2023/03/12 02:32:47;;;;;;;1.92;1.30;;;8.60;70.20;;;;;;5017396;28;20039;-77
2023/03/12 02:35:16;;;;;;;1.65;1.30;;;8.60;70.40;;;;;;5057399;28;20500;-77
2023/03/12 02:37:54;;;;;;;1.40;1.30;;;8.60;70.50;;;;;;5049281;28;20028;-78
2023/03/12 02:40:26;;;;;;;1.30;1.20;;;8.60;70.40;;;;;;5048783;28;20041;-77
2023/03/12 02:42:54;;;;;;;1.30;1.10;;;8.60;70.30;;;;;;5059371;28;20087;-77
2023/03/12 02:45:20;;;;;;;2.55;1.40;;;8.60;70.30;;;;;;5030409;28;22242;-78
2023/03/12 02:47:46;;;;;;;1.88;1.38;;;8.60;70.70;;;;;;5032883;28;20623;-77
2023/03/12 02:50:12;;;;;;;2.00;1.38;;;8.60;70.50;;;;;;5028016;28;20036;-78
2023/03/12 02:52:38;;;;;;;1.20;1.10;;;8.70;70.70;;;;;;5047345;28;20135;-78
2023/03/12 02:55:05;;;;;;;1.42;1.33;;;8.70;70.70;;;;;;5058817;28;20231;-78
2023/03/12 02:57:32;;;;;;;1.45;1.30;;;8.70;70.50;;;;;;5045049;28;20040;-78
2023/03/12 02:59:59;;;;;;;2.55;1.30;;;8.70;70.50;;;;;;5033367;28;20031;-77
2023/03/12 03:02:25;;;;;;;1.00;1.00;;;8.70;70.80;;;;;;5024669;28;20052;-78
2023/03/12 03:04:51;;;;;;;0.98;0.98;;;8.70;70.70;;;;;;5045913;28;20138;-78
2023/03/12 03:07:16;;;;;;;1.30;1.20;;;8.70;70.50;;;;;;5047937;28;20416;-78
2023/03/12 03:09:43;;;;;;;3.63;1.42;;;8.70;70.70;;;;;;5031872;28;20028;-78
2023/03/12 03:12:08;;;;;;;2.42;1.27;;;8.80;71.00;;;;;;5046650;28;20028;-78
2023/03/12 03:14:36;;;;;;;2.08;1.20;;;8.70;70.90;;;;;;5025559;28;20037;-78
2023/03/12 03:17:02;;;;;;;1.77;1.40;;;8.80;70.80;;;;;;5044698;28;20039;-78
2023/03/12 03:19:28;;;;;;;1.42;1.33;;;8.80;70.70;;;;;;5040292;28;20423;-78
2023/03/12 03:21:54;;;;;;;2.42;1.00;;;8.80;70.60;;;;;;5044197;28;20621;-78
2023/03/12 03:24:20;;;;;;;1.10;1.00;;;8.80;70.80;;;;;;5032183;28;20637;-78
2023/03/12 03:26:46;;;;;;;1.27;1.17;;;8.80;70.90;;;;;;5048661;28;20071;-77
2023/03/12 03:29:12;;;;;;;2.15;1.13;;;8.80;70.90;;;;;;5056847;28;20041;-77
2023/03/12 03:31:38;;;;;;;1.17;1.10;;;8.80;71.10;;;;;;5046146;28;20043;-77
2023/03/12 03:34:04;;;;;;;1.20;1.10;;;8.80;71.30;;;;;;5046148;28;20456;-78
2023/03/12 03:36:30;;;;;;;1.30;1.20;;;8.90;71.20;;;;;;5045042;28;20520;-78
2023/03/12 03:39:03;;;;;;;1.13;1.00;;;8.90;71.30;;;;;;5032781;28;20075;-78
2023/03/12 03:41:31;;;;;;;2.35;1.30;;;8.90;71.40;;;;;;5059906;28;20052;-78
2023/03/12 03:43:58;;;;;;;1.80;1.30;;;8.90;71.30;;;;;;5040602;28;20035;-78
2023/03/12 03:46:25;;;;;;;1.30;1.20;;;8.90;71.20;;;;;;5044977;28;20029;-78
2023/03/12 03:48:57;;;;;;;1.20;1.10;;;8.90;71.30;;;;;;5012606;28;20074;-78
2023/03/12 03:51:23;;;;;;;2.15;1.38;;;9.00;71.40;;;;;;5037872;28;20034;-78
2023/03/12 03:53:54;;;;;;;1.20;1.10;;;9.00;71.20;;;;;;5040809;28;20068;-78
2023/03/12 03:56:20;;;;;;;1.25;1.10;;;9.00;71.00;;;;;;5027140;28;20037;-78
2023/03/12 03:58:49;;;;;;;1.50;1.25;;;9.00;70.90;;;;;;5037727;28;20163;-78
2023/03/12 04:01:17;;;;;;;1.52;1.42;;;9.00;70.90;;;;;;5040423;28;20025;-78
2023/03/12 04:03:45;;;;;;;1.92;1.38;;;9.00;71.10;;;;;;5039493;28;20408;-79
2023/03/12 04:06:11;;;;;;;1.15;1.00;;;9.00;71.10;;;;;;5010296;28;20133;-78
2023/03/12 04:08:39;;;;;;;1.73;1.40;;;9.00;70.90;;;;;;5027559;28;20492;-79
2023/03/12 04:11:17;;;;;;;2.80;1.70;;;9.00;70.90;;;;;;5020591;28;20478;-79
2023/03/12 04:13:44;;;;;;;1.70;1.20;;;9.00;71.10;;;;;;5028698;28;20037;-79
2023/03/12 04:16:12;;;;;;;1.33;1.23;;;9.10;71.20;;;;;;5041277;28;20033;-78
2023/03/12 04:18:40;;;;;;;1.35;1.25;;;9.10;71.20;;;;;;5040142;28;20034;-78
2023/03/12 04:21:09;;;;;;;1.30;1.20;;;9.00;71.10;;;;;;5044105;28;20037;-78
2023/03/12 04:23:36;;;;;;;1.48;1.38;;;9.10;71.10;;;;;;5039616;28;20782;-78
2023/03/12 04:26:03;;;;;;;1.48;1.38;;;9.10;71.00;;;;;;5041906;28;20060;-78
2023/03/12 04:28:29;;;;;;;1.88;1.30;;;9.10;71.00;;;;;;5039316;28;20128;-78
2023/03/12 04:31:04;;;;;;;1.38;1.27;;;9.10;71.20;;;;;;5038080;28;20033;-78
2023/03/12 04:33:37;;;;;;;1.70;1.60;;;9.10;71.30;;;;;;5040368;28;20049;-78
2023/03/12 04:36:04;;;;;;;1.60;1.50;;;9.10;71.20;;;;;;5036484;28;20033;-78
2023/03/12 04:38:31;;;;;;;2.10;1.60;;;9.10;71.30;;;;;;5023258;28;20071;-78
2023/03/12 04:41:10;;;;;;;1.90;1.60;;;9.10;71.20;;;;;;5052266;28;20051;-78
2023/03/12 04:43:39;;;;;;;2.17;1.90;;;9.10;71.20;;;;;;5040814;28;20033;-78
2023/03/12 04:46:06;;;;;;;2.30;1.90;;;9.20;71.20;;;;;;5023579;28;20404;-78
2023/03/12 04:48:34;;;;;;;2.75;1.73;;;9.10;71.00;;;;;;5042380;28;20040;-78
2023/03/12 04:51:01;;;;;;;2.35;1.77;;;9.20;71.50;;;;;;5043761;28;20496;-78
2023/03/12 04:53:28;;;;;;;2.00;1.42;;;9.20;71.50;;;;;;5026949;28;20069;-78
2023/03/12 04:55:55;;;;;;;2.20;2.00;;;9.20;71.30;;;;;;5043302;28;20411;-79
2023/03/12 04:58:21;;;;;;;1.70;1.60;;;9.20;71.20;;;;;;5038227;28;20025;-78
2023/03/12 05:00:49;;;;;;;3.80;1.77;;;9.20;71.60;;;;;;5042443;28;20120;-77
2023/03/12 05:03:16;;;;;;;3.08;2.13;;;9.20;71.60;;;;;;5036766;28;20037;-77
2023/03/12 05:05:44;;;;;;;2.65;2.00;;;9.20;72.00;;;;;;5040705;28;20028;-78
2023/03/12 05:08:10;;;;;;;2.38;1.95;;;9.20;72.00;;;;;;5021876;28;20037;-78
2023/03/12 05:10:36;;;;;;;2.08;1.80;;;9.20;71.80;;;;;;5022149;28;20131;-80
2023/03/12 05:13:02;;;;;;;2.08;1.88;;;9.20;71.70;;;;;;5040904;28;20037;-78
2023/03/12 05:15:29;;;;;;;2.47;2.13;;;9.30;71.60;;;;;;5040630;28;20036;-79
2023/03/12 05:17:56;;;;;;;1.90;1.80;;;9.30;72.00;;;;;;5040705;28;20034;-79
2023/03/12 05:20:21;;;;;;;2.40;2.10;;;9.30;72.10;;;;;;5036295;28;20090;-79
2023/03/12 05:22:48;;;;;;;2.72;2.33;;;9.30;72.00;;;;;;5023758;28;20140;-80
2023/03/12 05:25:14;;;;;;;2.47;2.28;;;9.30;71.90;;;;;;5041885;28;20404;-79
2023/03/12 05:27:40;;;;;;;2.85;2.33;;;9.30;71.80;;;;;;5036823;28;20061;-79
2023/03/12 05:30:08;;;;;;;2.80;2.30;;;9.30;72.30;;;;;;5025478;28;20037;-78
2023/03/12 05:32:37;;;;;;;2.50;2.30;;;9.30;72.20;;;;;;5026547;28;20590;-79
2023/03/12 05:35:03;;;;;;;2.42;2.22;;;9.40;72.20;;;;;;5010250;28;20504;-78
2023/03/12 05:37:30;;;;;;;3.67;2.15;;;9.40;72.30;;;;;;5034429;28;20037;-77
2023/03/12 05:39:56;;;;;;;2.53;2.30;;;9.40;72.70;;;;;;5041416;28;20128;-78
2023/03/12 05:42:23;;;;;;;2.97;2.20;;;9.40;72.40;;;;;;5024279;28;20361;-79
2023/03/12 05:44:50;;;;;;;3.63;2.30;;;9.40;72.40;;;;;;5055469;28;20032;-78
2023/03/12 05:47:18;;;;;;;3.03;2.17;;;9.40;72.30;;;;;;5038644;28;20033;-78
2023/03/12 05:49:46;;;;;;;3.33;2.42;;;9.40;72.00;;;;;;5014125;28;20594;-75
2023/03/12 05:52:12;;;;;;;2.67;2.33;;;9.40;72.40;;;;;;5045447;28;20515;-74
2023/03/12 05:54:38;;;;;;;2.70;2.22;;;9.40;72.20;;;;;;5051460;28;20052;-75
2023/03/12 05:57:05;;;;;;;3.35;2.60;;;9.50;72.40;;;;;;5035510;28;20037;-75
2023/03/12 05:59:31;;;;;;;3.85;2.72;;;9.50;72.60;;;;;;5043689;28;20032;-75
2023/03/12 06:01:57;;;;;;;2.58;2.38;;;9.50;72.60;;;;;;5046195;28;20513;-76
2023/03/12 06:04:23;;;;;;;5.22;2.55;;;9.50;72.70;;;;;;5045830;28;20139;-75
2023/03/12 06:06:51;;;;;;;3.03;2.42;;;9.50;72.50;;;;;;5042250;28;20041;-87
2023/03/12 06:09:17;;;;;;;2.83;2.40;;;9.50;72.40;;;;;;5045169;28;20628;-90
2023/03/12 06:11:43;;;;;;;4.13;3.28;;;9.50;73.00;;;;;;5034470;28;20029;-91
2023/03/12 06:14:10;;;;;;;6.30;3.65;;;9.50;73.70;;;;;;5018234;28;20047;-88
2023/03/12 06:16:37;;;;;;;4.13;3.60;;;9.50;73.90;;;;;;5029964;28;20029;-87
2023/03/12 06:19:03;;;;;;;3.53;2.85;;;9.50;74.20;;;;;;5051625;28;20082;-85
2023/03/12 06:21:33;;;;;;;4.15;3.30;;;9.60;74.60;;;;;;5036393;28;20052;-86
2023/03/12 06:24:00;;;;;;;4.03;3.15;;;9.60;74.50;;;;;;5049147;28;20535;-81
2023/03/12 06:26:37;;;;;;;3.70;2.92;;;9.60;74.40;;;;;;5019114;28;20049;-82
2023/03/12 06:29:03;;;;;;;3.78;3.13;;;9.60;74.90;;;;;;5044480;28;20183;-84
2023/03/12 06:31:29;;;;;;;9.80;3.20;;;9.60;74.80;;;;;;5055938;28;20131;-81
2023/03/12 06:33:55;;;;;;;5.25;3.22;;;9.60;74.50;;;;;;5056325;28;20549;-83
2023/03/12 06:36:22;;;;;;;3.97;2.95;;;9.60;74.70;;;;;;5041332;28;22791;-81
2023/03/12 06:38:49;;;;;;;3.95;2.95;;;9.60;74.30;;;;;;5015040;28;20088;-81
2023/03/12 06:41:17;;;;;;;5.28;3.38;;;9.70;74.30;;;;;;5043693;28;20495;-83
2023/03/12 06:43:44;;;;;;;5.47;3.40;;;9.60;74.40;;;;;;5056601;28;20068;-82
2023/03/12 06:46:15;;;;;;;5.53;3.47;;;9.70;75.30;;;;;;5058369;28;20071;-83
2023/03/12 06:48:42;;;;;;;5.03;3.25;;;9.70;75.90;;;;;;5055754;28;20037;-81
2023/03/12 06:51:09;;;;;;;5.68;3.80;;;9.70;75.90;;;;;;5055794;28;20456;-82
2023/03/12 06:53:36;;;;;;;6.55;3.78;;;9.70;76.50;;;;;;5045416;28;20060;-81
2023/03/12 06:56:02;;;;;;;6.13;3.90;;;9.70;77.40;;;;;;5045577;28;20029;-81
2023/03/12 06:58:28;;;;;;;7.00;3.35;;;9.70;77.20;;;;;;5057344;28;20032;-81
2023/03/12 07:00:54;;;;;;;6.43;3.40;;;9.80;76.70;;;;;;5042396;28;20033;-81
2023/03/12 07:03:21;;;;;;;8.32;4.05;;;9.80;76.70;;;;;;5041328;28;20118;-81
2023/03/12 07:05:49;;;;;;;5.90;4.05;;;9.80;77.30;;;;;;5039341;28;20033;-81
2023/03/12 07:08:16;;;;;;;5.40;3.70;;;9.80;77.30;;;;;;5062641;28;20051;-81
2023/03/12 07:10:42;;;;;;;5.55;3.58;;;9.80;77.00;;;;;;5019798;28;20646;-80
2023/03/12 07:13:08;;;;;;;7.00;4.10;;;9.80;77.00;;;;;;5033467;28;20045;-79
2023/03/12 07:15:34;;;;;;;7.07;4.22;;;9.80;77.40;;;;;;5043988;28;20063;-80
2023/03/12 07:18:05;;;;;;;5.88;4.45;;;9.80;77.50;;;;;;5040820;28;20048;-76
2023/03/12 07:20:31;;;;;;;8.15;4.45;;;9.80;77.80;;;;;;5029441;28;20047;-74
2023/03/12 07:22:58;;;;;;;5.60;4.00;;;9.90;77.90;;;;;;5058569;28;20036;-74
2023/03/12 07:25:24;;;;;;;6.00;4.15;;;9.90;78.10;;;;;;5040076;28;20033;-78
2023/03/12 07:27:50;;;;;;;6.43;4.38;;;9.90;78.40;;;;;;5030845;28;20048;-77
2023/03/12 07:30:16;;;;;;;7.45;4.35;;;9.90;78.20;;;;;;5044303;28;20040;-77
2023/03/12 07:32:42;;;;;;;7.07;4.07;;;9.90;78.20;;;;;;5058100;28;20069;-77
2023/03/12 07:35:09;;;;;;;5.13;4.28;;;9.90;78.00;;;;;;5056525;28;20060;-76
2023/03/12 07:37:35;;;;;;;5.93;4.20;;;9.90;78.10;;;;;;5056043;28;20029;-76
2023/03/12 07:40:01;;;;;;;6.93;4.30;;;10.00;77.80;;;;;;5056791;28;20029;-76
2023/03/12 07:42:26;;;;;;;6.78;4.53;;;10.00;78.00;;;;;;5057222;28;20110;-76
2023/03/12 07:44:55;;;;;;;5.45;4.20;;;10.00;77.80;;;;;;5057584;28;20037;-76
2023/03/12 07:47:21;;;;;;;6.55;4.43;;;10.00;77.70;;;;;;5031332;28;20033;-77
2023/03/12 07:49:47;;;;;;;6.18;4.70;;;10.00;77.60;;;;;;5040836;28;20028;-76
2023/03/12 07:52:13;;;;;;;6.47;4.68;;;10.00;77.30;;;;;;5030301;28;20036;-77
2023/03/12 07:54:39;;;;;;;5.43;4.00;;;10.00;77.20;;;;;;5056153;28;20404;-77
2023/03/12 07:57:05;;;;;;;7.18;4.57;;;10.10;77.50;;;;;;5031831;28;20392;-76
2023/03/12 07:59:32;;;;;;;5.20;4.07;;;10.10;77.40;;;;;;5057213;28;20033;-76
2023/03/12 08:01:58;;;;;;;6.05;4.70;;;10.10;77.20;;;;;;5030966;28;20040;-76
2023/03/12 08:04:24;;;;;;;6.07;4.63;;;10.10;77.60;;;;;;5057376;28;20488;-77
2023/03/12 08:06:50;;;;;;;6.22;4.78;;;10.10;77.60;;;;;;5024545;28;20045;-77
2023/03/12 08:09:16;;;;;;;5.82;4.47;;;10.10;77.60;;;;;;5056751;28;20035;-78
2023/03/12 08:11:42;;;;;;;7.75;4.72;;;10.10;77.50;;;;;;5040778;28;20519;-78
2023/03/12 08:14:08;;;;;;;5.38;4.03;;;10.10;77.60;;;;;;5056199;28;20032;-79
2023/03/12 08:16:34;;;;;;;5.60;4.43;;;10.20;77.30;;;;;;5056359;28;20644;-79
2023/03/12 08:18:59;;;;;;;5.32;4.75;;;10.20;77.40;;;;;;5047087;28;20041;-76
2023/03/12 08:21:25;;;;;;;6.63;5.15;;;10.20;77.90;;;;;;5046560;28;20040;-76
2023/03/12 08:23:51;;;;;;;8.43;5.13;;;10.20;77.70;;;;;;5045228;28;20066;-78
2023/03/12 08:26:17;;;;;;;5.57;4.78;;;10.20;78.10;;;;;;5045937;28;20032;-82
2023/03/12 08:28:43;;;;;;;9.00;5.55;;;10.20;78.30;;;;;;5025116;28;20044;-75
2023/03/12 08:31:09;;;;;;;6.10;4.57;;;10.20;78.10;;;;;;5055851;28;20543;-77
2023/03/12 08:33:39;;;;;;;7.63;5.13;;;10.20;78.30;;;;;;5040052;28;20127;-77
2023/03/12 08:36:06;;;;;;;5.15;3.80;;;10.20;78.60;;;;;;5057041;28;20078;-77
2023/03/12 08:38:32;;;;;;;6.13;4.07;;;10.30;78.30;;;;;;5056739;28;20025;-75
2023/03/12 08:40:59;;;;;;;6.97;4.60;;;10.20;78.20;;;;;;5057014;28;20045;-75
2023/03/12 08:43:26;;;;;;;5.80;4.30;;;10.30;78.40;;;;;;5024614;28;20507;-75
2023/03/12 08:45:57;;;;;;;5.55;4.40;;;10.30;78.60;;;;;;5037506;28;20583;-76
2023/03/12 08:48:23;;;;;;;4.80;3.92;;;10.30;78.70;;;;;;5032192;28;20032;-76
2023/03/12 08:50:50;;;;;;;4.90;3.80;;;10.30;78.50;;;;;;5053446;28;20037;-75
2023/03/12 08:53:17;;;;;;;5.07;3.95;;;10.30;77.80;;;;;;5054174;28;20501;-77
2023/03/12 08:55:44;;;;;;;7.15;4.28;;;10.30;78.60;;;;;;5044522;28;20044;-76
2023/03/12 08:58:10;;;;;;;4.72;3.83;;;10.30;78.60;;;;;;5037614;28;20482;-76
2023/03/12 09:00:36;;;;;;;4.70;3.70;;;10.40;78.40;;;;;;5053232;28;20413;-77
2023/03/12 09:03:02;;;;;;;5.63;3.92;;;10.40;78.30;;;;;;5043939;28;20040;-78
2023/03/12 09:05:28;;;;;;;4.43;3.72;;;10.40;78.10;;;;;;5040408;28;20059;-77
2023/03/12 09:07:58;;;;;;;3.90;3.20;;;10.40;78.30;;;;;;5040504;28;20036;-78
2023/03/12 09:10:26;;;;;;;4.25;3.42;;;10.40;77.80;;;;;;5041256;28;20525;-76
2023/03/12 09:12:51;;;;;;;4.05;3.30;;;10.40;77.30;;;;;;5028551;28;20043;-77
2023/03/12 09:15:18;;;;;;;4.85;3.80;;;10.40;77.60;;;;;;5026241;28;20090;-79
2023/03/12 09:17:44;;;;;;;4.15;3.45;;;10.40;77.90;;;;;;5031573;28;20027;-78
2023/03/12 09:20:13;;;;;;;4.10;3.30;;;10.50;77.60;;;;;;5040518;28;20029;-75
2023/03/12 09:22:39;;;;;;;4.32;3.38;;;10.40;77.50;;;;;;5056720;28;20121;-78
2023/03/12 09:25:07;;;;;;;4.60;3.60;;;10.40;78.30;;;;;;5026238;28;20051;-76
2023/03/12 09:27:42;;;;;;;5.65;2.83;;;10.50;78.30;;;;;;5024769;28;20116;-75
2023/03/12 09:30:11;;;;;;;3.87;2.90;;;10.50;78.60;;;;;;5042287;28;20033;-77
2023/03/12 09:32:37;;;;;;;4.40;3.15;;;10.50;78.90;;;;;;5056561;28;20032;-79
2023/03/12 09:35:04;;;;;;;3.92;2.90;;;10.50;79.10;;;;;;5045814;28;20048;-77
2023/03/12 09:37:31;;;;;;;3.38;2.75;;;10.50;78.70;;;;;;5041990;28;20120;-79
2023/03/12 09:39:57;;;;;;;5.30;3.28;;;10.60;78.70;;;;;;5027635;28;20033;-78
2023/03/12 09:42:43;;;;;;;3.90;2.83;;;10.50;78.40;;;;;;5030265;28;20045;-79
2023/03/12 09:45:20;;;;;;;3.85;3.25;;;10.50;78.50;;;;;;5055796;28;20029;-82
2023/03/12 09:47:52;;;;;;;4.38;3.20;;;10.60;80.20;;;;;;5023363;28;20082;-80
2023/03/12 09:50:39;;;;;;;3.38;2.78;;;10.60;80.10;;;;;;5047210;28;20056;-85
2023/03/12 09:53:17;;;;;;;3.22;2.30;;;10.60;79.60;;;;;;5041929;28;20578;-85
2023/03/12 09:55:46;;;;;;;5.03;3.65;;;10.60;79.10;;;;;;5063184;28;20571;-86
2023/03/12 09:58:17;;;;;;;4.43;3.30;;;10.60;79.70;;;;;;5057003;28;20025;-87
2023/03/12 10:00:43;;;;;;;4.75;3.22;;;10.60;80.10;;;;;;5040240;28;20096;-79
2023/03/12 10:03:30;;;;;;;6.22;2.92;;;10.60;80.00;;;;;;5056402;28;20033;-80
2023/03/12 10:06:19;;;;;;;3.95;3.15;;;10.60;79.70;;;;;;5047204;28;20101;-79
2023/03/12 10:08:53;;;;;;;3.13;2.80;;;10.60;79.70;;;;;;5025260;28;20045;-81
2023/03/12 10:11:47;;;;;;;3.25;2.95;;;10.60;79.50;;;;;;5036861;28;20091;-82
2023/03/12 10:14:28;;;;;;;3.08;2.78;;;10.60;79.40;;;;;;5038093;28;20033;-81
2023/03/12 10:17:02;;;;;;;3.88;3.28;;;10.60;79.50;;;;;;5029357;28;20127;-83
2023/03/12 10:19:59;;;;;;;4.03;3.00;;;10.50;79.40;;;;;;5043148;28;20327;-81
2023/03/12 10:22:28;;;;;;;5.00;2.88;;;10.50;79.30;;;;;;5059324;28;20090;-83
2023/03/12 10:25:00;;;;;;;2.10;1.90;;;10.50;79.20;;;;;;5037051;28;20025;-84
2023/03/12 10:27:29;;;;;;;3.00;2.38;;;10.50;78.80;;;;;;5043792;28;20033;-81
2023/03/12 10:29:56;;;;;;;3.33;2.25;;;10.50;78.20;;;;;;5043311;28;20140;-79
2023/03/12 10:32:29;;;;;;;2.60;2.22;;;10.50;78.10;;;;;;5023581;28;20048;-80
2023/03/12 10:35:01;;;;;;;2.95;2.70;;;10.40;77.80;;;;;;5044086;28;20044;-81
2023/03/12 10:37:50;;;;;;;3.33;3.03;;;10.40;77.70;;;;;;5038896;28;20072;-79
2023/03/12 10:40:20;;;;;;;6.97;3.55;;;10.40;78.60;;;;;;5045595;28;20495;-79
2023/03/12 10:42:46;;;;;;;3.65;3.05;;;10.40;79.00;;;;;;5038360;28;20141;-79
2023/03/12 10:45:49;;;;;;;4.03;3.08;;;10.40;78.80;;;;;;5025770;28;20029;-79
2023/03/12 10:48:21;;;;;;;3.55;3.15;;;10.40;78.50;;;;;;5045077;28;20028;-79
2023/03/12 10:51:01;;;;;;;7.03;3.30;;;10.40;79.20;;;;;;5038414;28;20037;-80
2023/03/12 10:53:30;;;;;;;3.97;2.70;;;10.40;79.50;;;;;;5025406;28;20068;-79
2023/03/12 10:56:03;;;;;;;4.28;3.40;;;10.40;79.30;;;;;;5038338;28;20024;-79
2023/03/12 10:58:39;;;;;;;3.25;2.15;;;10.30;79.10;;;;;;5021539;28;20137;-79
2023/03/12 11:01:18;;;;;;;2.55;1.77;;;10.30;78.40;;;;;;5040309;28;20045;-80
2023/03/12 11:03:45;;;;;;;2.97;2.72;;;10.30;76.10;;;;;;5022317;28;20044;-80
2023/03/12 11:06:21;;;;;;;3.65;2.85;;;10.20;76.50;;;;;;5013851;28;20041;-79
2023/03/12 11:09:06;;;;;;;3.25;2.90;;;10.10;76.90;;;;;;5016657;28;20462;-79
2023/03/12 11:11:35;;;;;;;3.88;2.63;;;10.00;76.80;;;;;;5027700;28;20075;-80
2023/03/12 11:14:26;;;;;;;3.20;2.78;;;10.00;76.80;;;;;;5031794;28;20041;-83
2023/03/12 11:16:53;;;;;;;4.55;2.88;;;10.00;77.50;;;;;;5049731;28;20043;-84
2023/03/12 11:19:29;;;;;;;2.60;2.40;;;10.00;78.60;;;;;;5028189;28;20045;-81
2023/03/12 11:21:59;;;;;;;;;;;10.00;78.00;;;;;;5059425;28;20032;-83
2023/03/12 11:24:25;;;;;;;3.72;3.33;;;10.00;78.50;;;;;;5026747;28;19955;-84
2023/03/12 11:26:55;;;;;;;3.60;3.28;;;10.00;79.10;;;;;;5015641;28;20067;-79
2023/03/12 11:29:24;;;;;;;4.65;3.20;;;10.00;80.80;;;;;;5044108;28;20059;-80
2023/03/12 11:31:59;;;;;;;3.85;3.20;;;10.10;84.00;;;;;;5057993;28;20032;-82
2023/03/12 11:34:32;;;;;;;3.40;2.70;;;10.10;85.80;;;;;;5032070;28;20044;-88
2023/03/12 11:37:29;;;;;;;4.57;3.28;;;10.20;86.90;;;;;;5042296;28;20036;-86
2023/03/12 11:39:55;;;;;;;4.07;3.55;;;10.20;84.90;;;;;;5015608;28;20147;-81
2023/03/12 11:43:00;;;;;;;3.20;2.90;;;10.30;84.20;;;;;;5015373;28;20130;-81
2023/03/12 11:46:04;;;;;;;3.50;3.08;;;10.30;83.30;;;;;;5047895;28;20056;-84
2023/03/12 11:48:50;;;;;;;3.53;2.95;;;10.30;82.50;;;;;;5041565;28;20043;-82
2023/03/12 11:51:38;;;;;;;3.20;2.38;;;10.30;82.20;;;;;;5057599;28;20040;-82
2023/03/12 11:54:19;;;;;;;2.65;2.45;;;10.30;81.50;;;;;;5025386;28;20060;-81
2023/03/12 11:56:58;;;;;;;4.35;2.45;;;10.30;81.40;;;;;;5031102;28;20077;-80
2023/03/12 11:59:24;;;;;;;2.78;2.20;;;10.30;81.00;;;;;;5047271;28;20466;-83
2023/03/12 12:02:21;;;;;;;2.15;1.95;;;10.20;80.10;;;;;;5040209;28;20437;-82
2023/03/12 12:05:24;;;;;;;2.95;2.63;;;10.30;80.00;;;;;;5044280;28;20045;-82
2023/03/12 12:07:56;;;;;;;3.00;2.70;;;10.30;80.60;;;;;;5055118;28;20055;-81
2023/03/12 12:10:35;;;;;;;3.30;2.60;;;10.20;80.20;;;;;;5031736;28;20032;-82
2023/03/12 12:13:21;;;;;;;3.20;2.90;;;10.20;80.40;;;;;;5044117;28;20039;-84
2023/03/12 12:16:14;;;;;;;3.97;2.40;;;10.20;81.00;;;;;;5058652;28;20147;-83
2023/03/12 12:19:00;;;;;;;2.30;1.80;;;10.20;81.10;;;;;;5043876;28;20066;-85
2023/03/12 12:21:41;;;;;;;2.53;1.73;;;10.20;78.60;;;;;;5057242;28;20554;-86
2023/03/12 12:24:22;;;;;;;3.08;1.40;;;10.20;78.30;;;;;;5056302;28;20036;-83
2023/03/12 12:26:56;;;;;;;1.05;0.80;;;10.20;78.90;;;;;;5057774;28;20040;-84
2023/03/12 12:29:54;;;;;;;1.30;0.60;;;10.20;78.40;;;;;;5013083;28;20037;-84
2023/03/12 12:32:31;;;;;;;1.23;0.50;;;10.20;77.70;;;;;;5056679;28;20064;-84
2023/03/12 12:35:18;;;;;;;1.85;0.60;;;10.20;76.50;;;;;;5043866;28;20519;-85
2023/03/12 12:37:49;;;;;;;0.52;0.40;;;10.10;75.50;;;;;;5057737;28;20060;-85
2023/03/12 12:40:33;;;;;;;1.27;0.40;;;10.10;75.20;;;;;;5043062;28;20059;-84
2023/03/12 12:43:27;;;;;;;0.77;0.40;;;10.10;74.60;;;;;;5041154;28;20078;-85
2023/03/12 12:46:03;;;;;;;1.05;0.52;;;10.10;73.60;;;;;;5056959;28;20037;-83
2023/03/12 12:48:47;;;;;;;0.30;0.10;;;10.00;73.00;;;;;;5043626;28;20052;-82
2023/03/12 12:51:15;;;;;;;1.48;0.50;;;10.00;72.50;;;;;;5056828;28;20051;-85
2023/03/12 12:54:18;;;;;;;0.17;0.17;;;9.90;72.20;;;;;;5049376;28;20073;-86
2023/03/12 12:57:16;;;;;;;0.50;0.30;;;9.90;71.80;;;;;;5039468;28;20037;-86
2023/03/12 13:00:16;;;;;;;1.67;0.60;;;9.80;71.70;;;;;;5054082;28;20041;-84
2023/03/12 13:02:46;;;;;;;0.32;0.28;;;9.90;71.60;;;;;;5042482;28;20404;-87
2023/03/12 13:05:21;;;;;;;0.10;0.10;;;9.80;71.70;;;;;;5027126;28;20035;-85
2023/03/12 13:07:47;;;;;;;0.30;0.20;;;9.70;71.50;;;;;;5040298;28;21449;-85
2023/03/12 13:10:34;;;;;;;0.47;0.40;;;9.70;71.30;;;;;;5029052;28;20407;-87